Time;durP1;ratioP1;P1;durP2;ratioP2;P2;SDS_P1;SDS_P2;PMS_P1;PMS_P2;Temp;Humidity;BMP_temperature;BMP_pressure;BME280_temperature;BME280_humidity;BME280_pressure;Samples;Min_cycle;Max_cycle;Signal;HPM_P1;HPM_P2
2023/02/08 00:00:57;;;;;;;53.73;28.60;;;0.80;99.90;;;;;;5093565;28;20448;-82
2023/02/08 00:03:24;;;;;;;53.43;28.77;;;0.80;99.90;;;;;;5093596;28;20437;-83
2023/02/08 00:05:50;;;;;;;54.67;30.17;;;0.70;99.90;;;;;;5093403;28;20533;-83
2023/02/08 00:08:17;;;;;;;52.10;29.47;;;0.70;99.90;;;;;;5093197;28;20795;-82
2023/02/08 00:10:45;;;;;;;52.47;29.60;;;0.70;99.90;;;;;;5093391;28;20485;-83
2023/02/08 00:13:13;;;;;;;50.13;29.73;;;0.70;99.90;;;;;;5093220;28;20448;-84
2023/02/08 00:15:42;;;;;;;52.73;29.73;;;0.60;99.90;;;;;;5093416;28;20433;-83
2023/02/08 00:18:09;;;;;;;51.77;28.13;;;0.50;99.90;;;;;;5093247;28;20445;-82
2023/02/08 00:20:39;;;;;;;53.63;29.63;;;0.50;99.90;;;;;;5092532;28;20433;-83
2023/02/08 00:23:05;;;;;;;52.67;28.37;;;0.50;99.90;;;;;;5093137;28;20488;-83
2023/02/08 00:25:33;;;;;;;54.57;30.40;;;0.50;99.90;;;;;;5093289;28;20456;-84
2023/02/08 00:28:00;;;;;;;54.67;31.87;;;0.40;99.90;;;;;;5093364;28;20438;-83
2023/02/08 00:30:29;;;;;;;57.30;30.97;;;0.40;99.90;;;;;;5093008;28;20476;-84
2023/02/08 00:32:56;;;;;;;52.27;29.87;;;0.40;99.90;;;;;;5092923;28;20426;-83
2023/02/08 00:35:23;;;;;;;56.53;28.90;;;0.30;99.90;;;;;;5092827;28;20448;-82
2023/02/08 00:37:50;;;;;;;44.50;26.50;;;0.30;99.90;;;;;;5093318;28;20445;-84
2023/02/08 00:40:17;;;;;;;58.17;28.13;;;0.30;99.90;;;;;;5096943;28;20461;-83
2023/02/08 00:42:44;;;;;;;49.90;29.10;;;0.40;99.90;;;;;;5096890;28;20445;-83
2023/02/08 00:45:11;;;;;;;45.73;27.10;;;0.50;99.90;;;;;;5097406;28;20434;-82
2023/02/08 00:47:39;;;;;;;50.27;27.53;;;0.50;99.90;;;;;;5096987;28;20449;-83
2023/02/08 00:50:07;;;;;;;49.33;27.57;;;0.60;99.90;;;;;;5096347;28;20449;-85
2023/02/08 00:52:34;;;;;;;47.83;26.97;;;0.50;99.90;;;;;;5096854;28;20445;-84
2023/02/08 00:55:00;;;;;;;47.60;25.47;;;0.50;99.90;;;;;;5097028;28;20438;-83
2023/02/08 00:57:28;;;;;;;48.33;26.93;;;0.50;99.90;;;;;;5097065;28;20452;-84
2023/02/08 00:59:55;;;;;;;50.53;27.43;;;0.50;99.90;;;;;;5096945;28;20457;-84
2023/02/08 01:02:22;;;;;;;46.73;26.30;;;0.50;99.90;;;;;;5096855;28;20453;-85
2023/02/08 01:04:51;;;;;;;58.88;38.63;;;0.40;99.90;;;;;;5094927;28;20422;-85
2023/02/08 01:07:18;;;;;;;47.30;29.97;;;0.40;99.90;;;;;;5096608;28;20644;-82
2023/02/08 01:09:46;;;;;;;45.10;29.10;;;0.40;99.90;;;;;;5096685;28;20446;-82
2023/02/08 01:12:13;;;;;;;51.40;26.67;;;0.40;99.90;;;;;;5096066;28;20493;-84
2023/02/08 01:14:41;;;;;;;46.03;27.53;;;0.40;99.90;;;;;;5096183;28;20430;-83
2023/02/08 01:17:08;;;;;;;48.13;27.07;;;0.40;99.90;;;;;;5096778;28;21025;-82
2023/02/08 01:19:35;;;;;;;46.37;27.00;;;0.30;99.90;;;;;;5096578;28;20434;-83
2023/02/08 01:22:03;;;;;;;50.77;27.60;;;0.30;99.90;;;;;;5097050;28;20456;-82
2023/02/08 01:24:30;;;;;;;48.53;26.17;;;0.30;99.90;;;;;;5097315;28;20929;-81
2023/02/08 01:26:58;;;;;;;43.47;25.33;;;0.30;99.90;;;;;;5096788;28;20428;-82
2023/02/08 01:29:27;;;;;;;46.77;25.27;;;0.20;99.90;;;;;;5096645;28;20445;-82
2023/02/08 01:31:54;;;;;;;44.50;25.43;;;0.20;99.90;;;;;;5095763;28;20986;-81
2023/02/08 01:34:20;;;;;;;41.13;25.17;;;0.10;99.90;;;;;;5096160;28;20431;-84
2023/02/08 01:36:47;;;;;;;45.13;25.40;;;0.10;99.90;;;;;;5096354;28;20457;-85
2023/02/08 01:39:15;;;;;;;42.50;25.03;;;0.20;99.90;;;;;;5095966;28;20441;-85
2023/02/08 01:41:45;;;;;;;45.80;24.23;;;0.10;99.90;;;;;;5096037;28;20446;-85
2023/02/08 01:44:49;;;;;;;45.83;26.33;;;0.00;99.90;;;;;;5096255;28;20437;-86
2023/02/08 01:47:17;;;;;;;52.80;25.87;;;0.00;99.90;;;;;;5095919;28;20453;-83
2023/02/08 01:49:44;;;;;;;43.23;25.60;;;0.00;99.90;;;;;;5094866;28;20430;-83
2023/02/08 01:52:14;;;;;;;42.53;25.90;;;0.00;99.90;;;;;;5095740;28;20489;-83
2023/02/08 01:54:51;;;;;;;53.33;27.70;;;-0.10;99.90;;;;;;5095780;28;20465;-84
2023/02/08 01:57:19;;;;;;;47.97;27.37;;;-0.10;99.90;;;;;;5096024;28;20919;-82
2023/02/08 01:59:49;;;;;;;49.83;27.50;;;-0.10;99.90;;;;;;5095629;28;20441;-84
2023/02/08 02:02:19;;;;;;;47.93;27.20;;;-0.20;99.90;;;;;;5095001;28;20434;-85
2023/02/08 02:04:47;;;;;;;51.80;27.87;;;-0.30;99.90;;;;;;5095010;28;20956;-83
2023/02/08 02:07:16;;;;;;;47.80;26.90;;;-0.30;99.90;;;;;;5095224;28;20450;-83
2023/02/08 02:09:47;;;;;;;48.77;25.90;;;-0.20;99.90;;;;;;5095497;28;20437;-83
2023/02/08 02:12:16;;;;;;;43.63;25.20;;;-0.20;99.90;;;;;;5095066;28;20473;-82
2023/02/08 02:14:44;;;;;;;47.70;26.30;;;-0.20;99.90;;;;;;5095225;28;20438;-82
2023/02/08 02:17:12;;;;;;;48.80;26.40;;;-0.30;99.90;;;;;;5094621;28;20472;-87
2023/02/08 02:19:50;;;;;;;46.40;27.43;;;-0.40;99.90;;;;;;5095299;28;20430;-79
2023/02/08 02:22:44;;;;;;;46.53;25.37;;;-0.40;99.90;;;;;;5094888;28;20430;-80
2023/02/08 02:25:35;;;;;;;47.60;26.20;;;-0.50;99.90;;;;;;5094964;28;20430;-82
2023/02/08 02:28:40;;;;;;;44.63;26.47;;;-0.60;99.90;;;;;;5092450;28;20453;-83
2023/02/08 02:31:41;;;;;;;44.73;26.33;;;-0.60;99.90;;;;;;5073594;28;20474;-84
2023/02/08 02:34:16;;;;;;;50.37;25.43;;;-0.60;99.90;;;;;;5090946;28;20445;-83
2023/02/08 02:36:51;;;;;;;42.93;24.60;;;-0.60;99.90;;;;;;5094313;28;20459;-82
2023/02/08 02:39:27;;;;;;;52.27;26.50;;;-0.60;99.90;;;;;;5094560;28;20437;-82
2023/02/08 02:44:54;;;;;;;43.73;23.87;;;-0.80;99.90;;;;;;5093934;28;20433;-82
2023/02/08 02:47:32;;;;;;;49.70;25.60;;;-0.90;99.90;;;;;;5094499;28;20461;-85
2023/02/08 02:50:05;;;;;;;44.70;25.00;;;-0.90;99.90;;;;;;5094206;28;20437;-82
2023/02/08 02:52:38;;;;;;;50.00;27.10;;;-1.00;99.90;;;;;;5094608;28;20496;-85
2023/02/08 02:55:09;;;;;;;48.73;27.00;;;-0.90;99.90;;;;;;5094088;28;20448;-82
2023/02/08 02:57:38;;;;;;;48.60;26.97;;;-0.80;99.90;;;;;;5094513;28;20445;-81
2023/02/08 03:00:08;;;;;;;47.73;26.73;;;-0.80;99.90;;;;;;5093965;28;20449;-79
2023/02/08 03:02:38;;;;;;;49.27;26.90;;;-0.80;99.90;;;;;;5093891;28;20438;-81
2023/02/08 03:05:10;;;;;;;46.43;25.67;;;-0.70;99.90;;;;;;5094073;28;20451;-82
2023/02/08 03:07:50;;;;;;;45.33;25.23;;;-0.70;99.90;;;;;;5094275;28;20441;-80
2023/02/08 03:10:33;;;;;;;43.57;26.97;;;-0.80;99.90;;;;;;5094097;28;20952;-79
2023/02/08 03:13:06;;;;;;;44.83;27.60;;;-0.80;99.90;;;;;;5094069;28;20826;-80
2023/02/08 03:15:46;;;;;;;43.83;26.33;;;-0.80;99.90;;;;;;5093758;28;20437;-79
2023/02/08 03:18:29;;;;;;;43.87;26.17;;;-0.80;99.90;;;;;;5093903;28;20561;-81
2023/02/08 03:21:03;;;;;;;44.93;26.27;;;-0.70;99.90;;;;;;5093882;28;20438;-81
2023/02/08 03:23:31;;;;;;;53.83;27.47;;;-0.70;99.90;;;;;;5094034;28;20471;-81
2023/02/08 03:26:05;;;;;;;45.80;27.97;;;-0.60;99.90;;;;;;5094113;28;20453;-83
2023/02/08 03:28:39;;;;;;;45.57;26.23;;;-0.70;99.90;;;;;;5093013;28;20948;-82
2023/02/08 03:31:13;;;;;;;44.70;25.97;;;-0.60;99.90;;;;;;5093504;28;20492;-82
2023/02/08 03:33:48;;;;;;;48.17;28.03;;;-0.80;99.90;;;;;;5093903;28;20441;-83
2023/02/08 03:36:22;;;;;;;49.23;28.30;;;-0.80;99.90;;;;;;5093605;28;20979;-85
2023/02/08 03:38:53;;;;;;;44.53;27.13;;;-0.90;99.90;;;;;;5093889;28;20943;-84
2023/02/08 03:41:24;;;;;;;45.10;27.70;;;-0.90;99.90;;;;;;5093557;28;20449;-85
2023/02/08 03:43:57;;;;;;;47.40;27.40;;;-0.90;99.90;;;;;;5093725;28;20640;-84
2023/02/08 03:46:27;;;;;;;47.77;27.83;;;-0.80;99.90;;;;;;5093711;28;20453;-82
2023/02/08 03:49:00;;;;;;;48.67;26.93;;;-0.80;99.90;;;;;;5093595;28;20815;-82
2023/02/08 03:51:30;;;;;;;45.10;27.40;;;-0.80;99.90;;;;;;5093977;28;20466;-83
2023/02/08 03:53:58;;;;;;;48.87;26.33;;;-0.80;99.90;;;;;;5093393;28;20434;-81
2023/02/08 03:56:34;;;;;;;51.93;27.60;;;-0.80;99.90;;;;;;5093565;28;20457;-83
2023/02/08 03:59:06;;;;;;;43.57;25.87;;;-0.80;99.90;;;;;;5093364;28;20441;-81
2023/02/08 04:01:42;;;;;;;42.20;26.90;;;-0.80;99.90;;;;;;5093470;28;20446;-82
2023/02/08 04:04:11;;;;;;;44.53;25.13;;;-0.90;99.90;;;;;;5093320;28;20448;-83
2023/02/08 04:06:38;;;;;;;45.83;26.07;;;-0.90;99.90;;;;;;5093376;28;20437;-82
2023/02/08 04:09:04;;;;;;;44.97;25.57;;;-1.00;99.90;;;;;;5093879;28;20433;-84
2023/02/08 04:11:31;;;;;;;46.10;26.70;;;-0.90;99.90;;;;;;5093013;28;20478;-83
2023/02/08 04:13:58;;;;;;;47.90;26.83;;;-1.00;99.90;;;;;;5097260;28;20445;-83
2023/02/08 04:16:25;;;;;;;52.57;27.33;;;-0.90;99.90;;;;;;5097083;28;20453;-79
2023/02/08 04:18:52;;;;;;;52.00;28.07;;;-0.90;99.90;;;;;;5097486;28;20803;-80
2023/02/08 04:21:20;;;;;;;46.57;27.37;;;-0.90;99.90;;;;;;5097235;28;20434;-81
2023/02/08 04:23:48;;;;;;;46.70;26.67;;;-1.00;99.90;;;;;;5097474;28;20434;-84
2023/02/08 04:26:15;;;;;;;45.17;26.27;;;-1.00;99.90;;;;;;5097123;28;20448;-82
2023/02/08 04:28:42;;;;;;;46.83;27.97;;;-1.10;99.90;;;;;;5097615;28;20429;-82
2023/02/08 04:31:09;;;;;;;47.37;26.10;;;-1.20;99.90;;;;;;5096709;28;20441;-82
2023/02/08 04:33:35;;;;;;;47.23;28.07;;;-1.20;99.90;;;;;;5096876;28;20519;-82
2023/02/08 04:36:02;;;;;;;43.83;27.40;;;-1.30;99.90;;;;;;5097269;28;20434;-82
2023/02/08 04:38:31;;;;;;;51.40;27.13;;;-1.20;99.90;;;;;;5097018;28;20901;-84
2023/02/08 04:40:57;;;;;;;47.53;27.50;;;-1.20;99.90;;;;;;5096523;28;20951;-83
2023/02/08 04:43:25;;;;;;;49.20;26.23;;;-1.20;99.90;;;;;;5097094;28;20441;-82
2023/02/08 04:45:52;;;;;;;40.93;25.63;;;-1.30;99.90;;;;;;5096586;28;20644;-82
2023/02/08 04:48:20;;;;;;;50.33;27.07;;;-1.30;99.90;;;;;;5096655;28;20445;-82
2023/02/08 04:50:46;;;;;;;45.50;25.70;;;-1.40;99.90;;;;;;5097038;28;20519;-83
2023/02/08 04:53:13;;;;;;;47.00;25.37;;;-1.40;99.90;;;;;;5096580;28;20499;-83
2023/02/08 04:55:41;;;;;;;40.60;25.20;;;-1.30;99.90;;;;;;5096512;28;20441;-83
2023/02/08 04:58:09;;;;;;;48.37;25.77;;;-1.30;99.90;;;;;;5096637;28;20452;-83
2023/02/08 05:00:37;;;;;;;48.97;26.30;;;-1.30;99.90;;;;;;5096267;28;20449;-84
2023/02/08 05:03:04;;;;;;;41.90;25.07;;;-1.40;99.90;;;;;;5096477;28;20432;-83
2023/02/08 05:05:31;;;;;;;39.23;24.33;;;-1.30;99.90;;;;;;5096423;28;20437;-83
2023/02/08 05:07:58;;;;;;;47.10;26.07;;;-1.30;99.90;;;;;;5096687;28;20433;-83
2023/02/08 05:10:26;;;;;;;44.70;24.97;;;-1.40;99.90;;;;;;5097180;28;20434;-82
2023/02/08 05:12:54;;;;;;;37.17;24.07;;;-1.30;99.90;;;;;;5096759;28;20488;-80
2023/02/08 05:15:21;;;;;;;48.13;23.83;;;-1.30;99.90;;;;;;5095992;28;20445;-82
2023/02/08 05:17:48;;;;;;;41.23;24.43;;;-1.50;99.90;;;;;;5096611;28;20459;-84
2023/02/08 05:20:15;;;;;;;41.67;24.47;;;-1.40;99.90;;;;;;5096249;28;20441;-83
2023/02/08 05:22:43;;;;;;;40.43;22.00;;;-1.40;99.90;;;;;;5096217;28;20940;-81
2023/02/08 05:25:11;;;;;;;40.67;23.63;;;-1.30;99.90;;;;;;5095123;28;20441;-83
2023/02/08 05:27:37;;;;;;;40.03;24.13;;;-1.30;99.90;;;;;;5096011;28;20449;-85
2023/02/08 05:30:07;;;;;;;43.63;23.53;;;-1.30;99.90;;;;;;5095623;28;20448;-85
2023/02/08 05:32:33;;;;;;;41.93;24.73;;;-1.30;99.90;;;;;;5096169;28;20489;-81
2023/02/08 05:35:00;;;;;;;43.53;25.03;;;-1.30;99.90;;;;;;5095876;28;20440;-83
2023/02/08 05:37:27;;;;;;;42.27;25.10;;;-1.30;99.90;;;;;;5096264;28;20430;-83
2023/02/08 05:39:54;;;;;;;47.30;27.07;;;-1.40;99.90;;;;;;5096047;28;20557;-86
2023/02/08 05:42:21;;;;;;;49.93;25.13;;;-1.20;99.90;;;;;;5095846;28;20446;-83
2023/02/08 05:44:48;;;;;;;47.30;26.10;;;-1.40;99.90;;;;;;5096172;28;20441;-86
2023/02/08 05:47:18;;;;;;;37.43;23.37;;;-1.30;99.90;;;;;;5096177;28;20802;-81
2023/02/08 05:49:44;;;;;;;43.53;24.33;;;-1.40;99.90;;;;;;5096088;28;20457;-82
2023/02/08 05:52:11;;;;;;;44.43;25.30;;;-1.40;99.90;;;;;;5095568;28;20488;-85
2023/02/08 05:54:38;;;;;;;50.93;33.70;;;-1.40;99.90;;;;;;5094501;28;20449;-83
2023/02/08 05:57:05;;;;;;;39.07;25.43;;;-1.30;99.90;;;;;;5095706;28;20570;-86
2023/02/08 05:59:32;;;;;;;44.70;24.80;;;-1.20;99.90;;;;;;5096363;28;20441;-84
2023/02/08 06:02:00;;;;;;;37.60;22.63;;;-1.30;99.90;;;;;;5081098;28;20824;-83
2023/02/08 06:04:32;;;;;;;35.47;21.13;;;-1.30;99.90;;;;;;5080977;28;20452;-83
2023/02/08 06:06:59;;;;;;;40.33;21.07;;;-1.40;99.90;;;;;;5095535;28;20438;-84
2023/02/08 06:09:29;;;;;;;31.77;20.47;;;-1.30;99.90;;;;;;5087416;28;20450;-85
2023/02/08 06:11:57;;;;;;;31.30;19.87;;;-1.20;99.90;;;;;;5089493;28;20520;-82
2023/02/08 06:14:27;;;;;;;31.60;19.37;;;-1.20;99.90;;;;;;5095380;28;20457;-84
2023/02/08 06:16:56;;;;;;;28.90;18.83;;;-1.20;99.90;;;;;;5095118;28;20445;-86
2023/02/08 06:19:26;;;;;;;30.43;18.57;;;-1.20;99.90;;;;;;5081816;28;20442;-84
2023/02/08 06:21:55;;;;;;;33.13;19.50;;;-1.20;99.90;;;;;;5094832;28;20445;-86
2023/02/08 06:24:27;;;;;;;28.83;19.03;;;-1.30;99.90;;;;;;5095026;28;20442;-85
2023/02/08 06:26:56;;;;;;;32.10;18.97;;;-1.20;99.90;;;;;;5095024;28;20449;-83
2023/02/08 06:29:25;;;;;;;31.93;18.87;;;-1.40;99.90;;;;;;5094662;28;20446;-83
2023/02/08 06:31:52;;;;;;;31.43;19.50;;;-1.40;99.90;;;;;;5094481;28;20450;-85
2023/02/08 06:34:19;;;;;;;31.97;19.67;;;-1.30;99.90;;;;;;5094677;28;20546;-79
2023/02/08 06:36:45;;;;;;;27.13;18.40;;;-1.30;99.90;;;;;;5093566;28;20434;-81
2023/02/08 06:39:14;;;;;;;28.47;18.97;;;-1.30;99.90;;;;;;5094135;28;20442;-84
2023/02/08 06:41:40;;;;;;;39.40;19.60;;;-1.30;99.90;;;;;;5094400;28;20461;-85
2023/02/08 06:44:07;;;;;;;71.60;22.10;;;-1.20;99.90;;;;;;5094446;28;20452;-82
2023/02/08 06:46:34;;;;;;;66.30;21.63;;;-1.20;99.90;;;;;;5094239;28;20453;-83
2023/02/08 06:49:01;;;;;;;89.63;23.70;;;-1.10;99.90;;;;;;5094002;28;20452;-80
2023/02/08 06:51:29;;;;;;;101.18;29.70;;;-1.20;99.90;;;;;;5093218;28;20425;-84
2023/02/08 06:53:55;;;;;;;54.97;22.87;;;-1.10;99.90;;;;;;5094295;28;20213;-82
2023/02/08 06:56:25;;;;;;;46.60;22.20;;;-1.00;99.90;;;;;;5094409;28;20453;-81
2023/02/08 06:58:52;;;;;;;53.43;21.70;;;-1.10;99.90;;;;;;5093760;28;20438;-85
2023/02/08 07:01:18;;;;;;;49.10;20.23;;;-1.10;99.90;;;;;;5094163;28;20453;-84
2023/02/08 07:03:45;;;;;;;53.43;19.17;;;-1.30;99.90;;;;;;5094058;28;20452;-84
2023/02/08 07:06:13;;;;;;;49.93;22.20;;;-1.40;99.90;;;;;;5094020;28;20446;-86
2023/02/08 07:08:40;;;;;;;52.13;21.30;;;-1.40;99.90;;;;;;5091094;28;20447;-85
2023/02/08 07:11:08;;;;;;;52.47;19.63;;;-1.40;99.90;;;;;;5082037;28;20912;-79
2023/02/08 07:13:37;;;;;;;48.03;20.77;;;-1.30;99.90;;;;;;5088799;28;20515;-83
2023/02/08 07:16:04;;;;;;;48.77;19.73;;;-1.30;99.90;;;;;;5082341;28;20457;-81
2023/02/08 07:18:31;;;;;;;49.47;20.40;;;-1.20;99.90;;;;;;5093693;28;20801;-81
2023/02/08 07:20:58;;;;;;;54.45;27.95;;;-1.20;99.90;;;;;;5079101;28;20432;-83
2023/02/08 07:23:25;;;;;;;42.77;22.53;;;-1.10;99.90;;;;;;5081457;28;20210;-84
2023/02/08 07:25:58;;;;;;;46.27;23.57;;;-1.10;99.90;;;;;;5093110;28;20453;-84
2023/02/08 07:28:25;;;;;;;43.30;22.20;;;-1.10;99.90;;;;;;5093182;28;20441;-83
2023/02/08 07:30:53;;;;;;;34.47;20.07;;;-1.10;99.90;;;;;;5090206;28;20457;-86
2023/02/08 07:33:21;;;;;;;41.37;20.63;;;-1.30;99.90;;;;;;5083799;28;20488;-82
2023/02/08 07:35:48;;;;;;;33.40;20.70;;;-1.20;99.90;;;;;;5092950;28;20441;-83
2023/02/08 07:38:15;;;;;;;35.20;21.87;;;-1.20;99.90;;;;;;5093004;28;20445;-82
2023/02/08 07:40:41;;;;;;;38.17;18.53;;;-1.10;99.90;;;;;;5093109;28;20460;-80
2023/02/08 07:43:08;;;;;;;37.40;20.27;;;-1.10;99.90;;;;;;5092790;28;20448;-83
2023/02/08 07:45:37;;;;;;;35.50;18.97;;;-1.10;99.90;;;;;;5088323;28;20439;-80
2023/02/08 07:48:06;;;;;;;31.77;19.90;;;-1.00;99.90;;;;;;5084415;28;20438;-83
2023/02/08 07:50:33;;;;;;;44.28;28.10;;;-0.90;99.90;;;;;;5091911;28;20923;-80
2023/02/08 07:53:00;;;;;;;44.40;22.97;;;-0.80;99.90;;;;;;5092397;28;20229;-83
2023/02/08 07:55:27;;;;;;;40.30;22.40;;;-0.80;99.90;;;;;;5090157;28;20469;-83
2023/02/08 07:57:56;;;;;;;36.60;21.40;;;-0.90;99.90;;;;;;5092293;28;20951;-78
2023/02/08 08:00:23;;;;;;;34.30;21.00;;;-0.80;99.90;;;;;;5092716;28;20442;-79
2023/02/08 08:02:50;;;;;;;39.17;20.63;;;-0.70;99.90;;;;;;5092464;28;20924;-81
2023/02/08 08:05:18;;;;;;;37.63;22.00;;;-0.70;99.90;;;;;;5092061;28;20429;-79
2023/02/08 08:07:45;;;;;;;40.83;22.83;;;-0.70;99.90;;;;;;5092470;28;20445;-82
2023/02/08 08:10:12;;;;;;;45.40;22.70;;;-0.80;99.90;;;;;;5092256;28;20944;-82
2023/02/08 08:12:38;;;;;;;36.97;21.67;;;-0.90;99.90;;;;;;5091969;28;20988;-79
2023/02/08 08:15:06;;;;;;;36.77;21.13;;;-0.90;99.90;;;;;;5092789;28;20450;-86
2023/02/08 08:17:33;;;;;;;37.40;21.23;;;-0.90;99.90;;;;;;5092725;28;20454;-82
2023/02/08 08:20:00;;;;;;;33.93;22.13;;;-0.80;99.90;;;;;;5092078;28;20452;-82
2023/02/08 08:22:28;;;;;;;35.77;20.90;;;-0.70;99.90;;;;;;5092872;28;20438;-82
2023/02/08 08:24:55;;;;;;;29.93;19.17;;;-0.70;99.90;;;;;;5092483;28;20445;-85
2023/02/08 08:27:21;;;;;;;33.60;20.47;;;-0.60;99.90;;;;;;5092624;28;20536;-83
2023/02/08 08:29:48;;;;;;;30.83;18.47;;;-0.60;99.90;;;;;;5092718;28;20446;-84
2023/02/08 08:32:15;;;;;;;33.17;19.53;;;-0.50;99.90;;;;;;5092274;28;20453;-81
2023/02/08 08:34:42;;;;;;;29.37;18.63;;;-0.40;99.90;;;;;;5092244;28;20481;-85
2023/02/08 08:37:09;;;;;;;27.37;17.83;;;-0.40;99.90;;;;;;5092891;28;20515;-83
2023/02/08 08:39:37;;;;;;;26.67;17.00;;;-0.30;99.90;;;;;;5092072;28;21019;-83
2023/02/08 08:42:04;;;;;;;31.73;18.03;;;-0.10;99.90;;;;;;5092927;28;20454;-83
2023/02/08 08:44:31;;;;;;;31.03;17.83;;;0.00;99.90;;;;;;5092670;28;20809;-80
2023/02/08 08:46:59;;;;;;;29.40;16.77;;;0.00;99.90;;;;;;5091251;28;20518;-82
2023/02/08 08:49:28;;;;;;;26.57;17.07;;;0.10;99.90;;;;;;5089047;28;20933;-83
2023/02/08 08:51:55;;;;;;;23.80;16.73;;;0.10;99.90;;;;;;5089403;28;20453;-80
2023/02/08 08:54:22;;;;;;;28.57;17.07;;;0.20;99.90;;;;;;5090328;28;20836;-84
2023/02/08 08:56:50;;;;;;;28.43;17.50;;;0.30;99.90;;;;;;5092206;28;20929;-80
2023/02/08 08:59:17;;;;;;;25.40;16.50;;;0.50;99.90;;;;;;5093319;28;20448;-83
2023/02/08 09:01:43;;;;;;;26.97;16.30;;;0.60;99.90;;;;;;5095615;28;20442;-85
2023/02/08 09:04:11;;;;;;;25.83;16.27;;;0.60;99.90;;;;;;5096000;28;20452;-85
2023/02/08 09:06:38;;;;;;;21.97;15.40;;;0.60;99.90;;;;;;5093485;28;20441;-81
2023/02/08 09:09:05;;;;;;;24.83;14.70;;;0.70;99.90;;;;;;5096048;28;20438;-83
2023/02/08 09:11:33;;;;;;;23.33;14.47;;;0.80;99.90;;;;;;5095945;28;20442;-80
2023/02/08 09:14:02;;;;;;;20.53;13.77;;;1.00;99.90;;;;;;5095542;28;20898;-83
2023/02/08 09:16:29;;;;;;;24.63;16.60;;;1.00;99.90;;;;;;5086860;28;20897;-83
2023/02/08 09:18:55;;;;;;;18.97;13.30;;;1.20;99.90;;;;;;5086218;28;20450;-82
2023/02/08 09:21:24;;;;;;;21.77;13.63;;;1.30;99.90;;;;;;5085140;28;20439;-82
2023/02/08 09:23:51;;;;;;;21.43;13.20;;;1.40;99.90;;;;;;5076039;28;20458;-83
2023/02/08 09:26:19;;;;;;;20.00;13.10;;;1.50;99.90;;;;;;5075911;28;20442;-83
2023/02/08 09:28:46;;;;;;;18.10;12.37;;;1.60;99.90;;;;;;5075582;28;20438;-83
2023/02/08 09:31:19;;;;;;;23.03;12.43;;;1.80;99.90;;;;;;5075697;28;20430;-79
2023/02/08 09:33:46;;;;;;;17.70;11.80;;;1.80;99.90;;;;;;5075484;28;20539;-78
2023/02/08 09:36:13;;;;;;;19.37;11.80;;;1.90;99.90;;;;;;5076014;28;20446;-79
2023/02/08 09:38:41;;;;;;;15.73;10.50;;;1.90;99.90;;;;;;5075496;28;20469;-81
2023/02/08 09:41:23;;;;;;;20.90;11.93;;;2.00;99.90;;;;;;5083961;28;20450;-83
2023/02/08 09:43:56;;;;;;;20.03;11.23;;;2.20;99.90;;;;;;5085702;28;20452;-83
2023/02/08 09:46:28;;;;;;;14.53;10.73;;;2.30;99.90;;;;;;5079599;28;20964;-79
2023/02/08 09:49:01;;;;;;;17.07;11.20;;;2.50;99.90;;;;;;5075874;28;20435;-76
2023/02/08 09:51:36;;;;;;;15.07;10.10;;;2.50;99.90;;;;;;5076064;28;20442;-79
2023/02/08 09:54:08;;;;;;;16.60;10.43;;;2.60;99.90;;;;;;5075599;28;20497;-79
2023/02/08 09:56:39;;;;;;;19.47;10.67;;;2.70;99.90;;;;;;5075763;28;20945;-79
2023/02/08 09:59:13;;;;;;;13.03;9.83;;;2.90;99.90;;;;;;5086207;28;20434;-78
2023/02/08 10:01:41;;;;;;;18.30;10.43;;;3.00;99.90;;;;;;5085092;28;20443;-78
2023/02/08 10:04:14;;;;;;;20.77;10.87;;;3.20;99.90;;;;;;5087024;28;20437;-78
2023/02/08 10:06:41;;;;;;;26.63;13.00;;;3.40;99.90;;;;;;5087609;28;20965;-77
2023/02/08 10:09:14;;;;;;;23.87;11.40;;;3.70;99.90;;;;;;5096087;28;20182;-79
2023/02/08 10:11:49;;;;;;;18.13;9.83;;;3.70;99.90;;;;;;5097932;28;20438;-78
2023/02/08 10:14:36;;;;;;;11.03;8.17;;;3.80;99.90;;;;;;5100311;28;20503;-79
2023/02/08 10:17:21;;;;;;;19.63;8.83;;;3.90;99.90;;;;;;5101708;28;20449;-77
2023/02/08 10:20:01;;;;;;;9.87;7.90;;;4.00;99.90;;;;;;5096109;28;20438;-79
2023/02/08 10:22:39;;;;;;;15.50;8.43;;;4.10;99.90;;;;;;5079769;28;20675;-79
2023/02/08 10:25:21;;;;;;;14.57;7.87;;;4.10;99.90;;;;;;5090617;28;20529;-83
2023/02/08 10:27:58;;;;;;;9.93;7.13;;;4.10;99.90;;;;;;5098676;28;20192;-79
2023/02/08 10:30:37;;;;;;;10.07;7.57;;;4.10;99.90;;;;;;5093325;28;20425;-82
2023/02/08 10:33:12;;;;;;;13.43;9.50;;;4.10;99.90;;;;;;5075231;28;20435;-80
2023/02/08 10:35:44;;;;;;;12.53;7.57;;;4.10;99.90;;;;;;5076216;28;20208;-86
2023/02/08 10:38:24;;;;;;;8.97;7.87;;;4.10;99.90;;;;;;5076276;28;20817;-87
2023/02/08 10:40:55;;;;;;;9.67;7.20;;;4.30;99.90;;;;;;5075831;28;20235;-86
2023/02/08 10:43:31;;;;;;;13.43;7.90;;;4.30;99.90;;;;;;5077047;28;20206;-87
2023/02/08 10:46:08;;;;;;;11.50;8.43;;;4.40;99.90;;;;;;5075238;28;20208;-87
2023/02/08 10:48:46;;;;;;;11.80;7.77;;;4.60;99.90;;;;;;5077128;28;20303;-87
2023/02/08 10:51:17;;;;;;;12.37;7.43;;;4.70;99.90;;;;;;5093159;28;20201;-87
2023/02/08 10:53:45;;;;;;;12.40;8.20;;;4.90;99.90;;;;;;5096467;28;20712;-88
2023/02/08 10:56:34;;;;;;;8.73;7.47;;;5.10;99.90;;;;;;5097456;28;20196;-85
2023/02/08 10:59:06;;;;;;;17.20;8.03;;;5.20;99.90;;;;;;5094591;28;20197;-86
2023/02/08 11:01:33;;;;;;;10.53;7.23;;;5.40;99.90;;;;;;5098445;28;20200;-86
2023/02/08 11:04:03;;;;;;;16.63;6.67;;;5.40;99.90;;;;;;5096683;28;20210;-88
2023/02/08 11:06:31;;;;;;;14.27;7.60;;;5.40;99.90;;;;;;5098536;28;20196;-87
2023/02/08 11:09:00;;;;;;;12.60;7.23;;;5.50;99.90;;;;;;5093735;28;20201;-86
2023/02/08 11:11:28;;;;;;;8.73;7.30;;;5.50;99.90;;;;;;5092432;28;20269;-88
2023/02/08 11:14:07;;;;;;;8.07;6.20;;;5.70;99.90;;;;;;5089017;28;20218;-86
2023/02/08 11:16:35;;;;;;;11.33;6.97;;;5.80;99.90;;;;;;5100456;28;20204;-87
2023/02/08 11:19:06;;;;;;;7.17;5.83;;;5.90;99.90;;;;;;5100532;28;20232;-87
2023/02/08 11:21:35;;;;;;;10.00;6.40;;;6.00;99.90;;;;;;5098811;28;20262;-87
2023/02/08 11:24:20;;;;;;;8.93;5.77;;;6.10;99.90;;;;;;5098905;28;20200;-85
2023/02/08 11:26:48;;;;;;;7.83;5.17;;;6.10;99.90;;;;;;5100220;28;20316;-86
2023/02/08 11:29:18;;;;;;;7.95;5.82;;;6.20;99.90;;;;;;5098249;28;20430;-87
2023/02/08 11:31:58;;;;;;;12.53;5.80;;;6.40;99.90;;;;;;5098025;28;20255;-89
2023/02/08 11:34:28;;;;;;;9.27;5.77;;;6.60;99.90;;;;;;5098649;28;20228;-90
2023/02/08 11:36:56;;;;;;;10.13;6.40;;;6.70;99.90;;;;;;5098405;28;20205;-86
2023/02/08 11:39:26;;;;;;;9.20;4.90;;;6.70;99.90;;;;;;5097907;28;20632;-89
2023/02/08 11:41:57;;;;;;;6.73;4.70;;;6.50;97.90;;;;;;5096830;28;20660;-86
2023/02/08 11:44:29;;;;;;;12.07;5.57;;;6.60;96.50;;;;;;5095715;28;20189;-89
2023/02/08 11:46:58;;;;;;;5.87;4.80;;;6.70;97.30;;;;;;5084828;28;20224;-88
2023/02/08 11:49:31;;;;;;;6.07;4.93;;;6.80;97.00;;;;;;5095781;28;20197;-90
2023/02/08 11:51:58;;;;;;;5.20;4.33;;;7.00;96.80;;;;;;5098873;28;20200;-88
2023/02/08 11:54:39;;;;;;;6.57;3.80;;;7.10;95.30;;;;;;5101378;28;20628;-90
2023/02/08 11:57:14;;;;;;;4.90;4.00;;;7.10;92.70;;;;;;5099480;28;20204;-87
2023/02/08 11:59:41;;;;;;;5.20;4.20;;;7.20;91.60;;;;;;5095876;28;20204;-88
2023/02/08 12:02:31;;;;;;;4.40;4.00;;;7.30;91.20;;;;;;5076106;28;20198;-89
2023/02/08 12:05:12;;;;;;;3.93;3.50;;;7.30;91.00;;;;;;5075802;28;20202;-87
2023/02/08 12:07:53;;;;;;;3.87;3.47;;;7.30;84.60;;;;;;5085032;28;20300;-86
2023/02/08 12:10:56;;;;;;;4.83;3.17;;;7.40;83.60;;;;;;5089002;28;20591;-86
2023/02/08 12:13:41;;;;;;;3.47;3.07;;;7.50;80.60;;;;;;5096992;28;20208;-86
2023/02/08 12:16:20;;;;;;;5.23;3.33;;;7.50;77.70;;;;;;5090345;28;20212;-86
2023/02/08 12:19:03;;;;;;;8.00;3.80;;;7.60;79.60;;;;;;5093718;28;20271;-85
2023/02/08 12:21:38;;;;;;;7.83;3.93;;;7.50;77.80;;;;;;5089655;28;20204;-84
2023/02/08 12:24:14;;;;;;;6.30;3.47;;;7.60;77.30;;;;;;5091721;28;20213;-87
2023/02/08 12:26:56;;;;;;;13.07;3.77;;;7.60;78.20;;;;;;5075408;28;20194;-86
2023/02/08 12:29:39;;;;;;;2.87;2.67;;;7.70;78.20;;;;;;5089531;28;20212;-85
2023/02/08 12:32:39;;;;;;;4.20;3.13;;;7.70;74.60;;;;;;5080338;28;20201;-84
2023/02/08 12:35:46;;;;;;;4.47;2.50;;;7.90;74.10;;;;;;5085180;28;20236;-86
2023/02/08 12:41:17;;;;;;;2.83;2.57;;;7.90;69.80;;;;;;5096601;28;20216;-83
2023/02/08 12:43:57;;;;;;;6.10;3.53;;;8.00;71.30;;;;;;5089241;28;20201;-84
2023/02/08 12:46:55;;;;;;;6.03;3.10;;;8.10;71.40;;;;;;5099314;28;20702;-87
2023/02/08 12:50:00;;;;;;;4.77;3.17;;;7.90;73.70;;;;;;5096241;28;20217;-87
2023/02/08 12:52:35;;;;;;;3.20;2.70;;;7.80;72.40;;;;;;5093523;28;20215;-86
2023/02/08 12:55:16;;;;;;;4.15;3.78;;;7.90;74.50;;;;;;5097527;28;20493;-85
2023/02/08 12:57:45;;;;;;;3.43;3.13;;;8.20;73.10;;;;;;5089315;28;20200;-89
2023/02/08 13:00:36;;;;;;;3.97;3.17;;;8.10;71.00;;;;;;5101420;28;20245;-91